Time;durP1;ratioP1;P1;durP2;ratioP2;P2;SDS_P1;SDS_P2;PMS_P1;PMS_P2;Temp;Humidity;BMP_temperature;BMP_pressure;BME280_temperature;BME280_humidity;BME280_pressure;Samples;Min_cycle;Max_cycle;Signal;HPM_P1;HPM_P2
2023/12/29 00:01:32;;;;;;;14.80;2.83;;;10.00;99.90;;;;;;5049449;28;20412;-82
2023/12/29 00:03:58;;;;;;;9.60;2.78;;;9.90;99.90;;;;;;5047486;28;20405;-83
2023/12/29 00:06:24;;;;;;;14.15;2.63;;;9.90;99.90;;;;;;5048951;28;20040;-83
2023/12/29 00:08:49;;;;;;;16.08;3.20;;;9.90;99.90;;;;;;5048608;28;20131;-83
2023/12/29 00:11:20;;;;;;;15.27;2.90;;;9.90;99.90;;;;;;5047034;28;20370;-84
2023/12/29 00:13:46;;;;;;;9.57;2.88;;;9.90;99.90;;;;;;5042510;28;20111;-83
2023/12/29 00:16:12;;;;;;;11.23;2.50;;;10.10;99.90;;;;;;5046675;28;20045;-84
2023/12/29 00:18:38;;;;;;;9.35;2.33;;;10.00;99.90;;;;;;5044251;28;20037;-85
2023/12/29 00:21:04;;;;;;;12.35;3.17;;;10.00;99.90;;;;;;5046196;28;20406;-83
2023/12/29 00:23:30;;;;;;;13.77;3.20;;;10.00;99.90;;;;;;5046549;28;20095;-84
2023/12/29 00:25:56;;;;;;;12.40;2.78;;;10.10;99.90;;;;;;5047047;28;20439;-83
2023/12/29 00:28:21;;;;;;;11.27;2.88;;;10.00;99.90;;;;;;5049714;28;20112;-83
2023/12/29 00:30:47;;;;;;;10.70;3.03;;;10.00;99.90;;;;;;5043889;28;20045;-83
2023/12/29 00:33:12;;;;;;;8.63;2.83;;;10.00;99.90;;;;;;5047980;28;20037;-84
2023/12/29 00:35:41;;;;;;;14.80;2.55;;;9.90;99.90;;;;;;5044640;28;20151;-84
2023/12/29 00:38:07;;;;;;;9.32;2.50;;;9.90;99.90;;;;;;5048573;28;20412;-85
2023/12/29 00:40:33;;;;;;;11.70;2.30;;;9.90;99.90;;;;;;5046663;28;20052;-83
2023/12/29 00:43:01;;;;;;;12.77;2.42;;;9.90;99.90;;;;;;5044175;28;20049;-84
2023/12/29 00:45:31;;;;;;;14.52;2.33;;;9.90;99.90;;;;;;5049306;28;20381;-84
2023/12/29 00:47:57;;;;;;;10.73;2.50;;;9.90;99.90;;;;;;5049879;28;20045;-82
2023/12/29 00:50:23;;;;;;;13.90;2.60;;;9.80;99.90;;;;;;5052030;28;20508;-82
2023/12/29 00:52:48;;;;;;;14.10;2.50;;;9.80;99.90;;;;;;5046943;28;20041;-84
2023/12/29 00:55:14;;;;;;;11.20;2.60;;;9.80;99.90;;;;;;5049843;28;20071;-84
2023/12/29 00:57:40;;;;;;;10.88;2.30;;;9.80;99.90;;;;;;5050332;28;20389;-82
2023/12/29 01:00:08;;;;;;;9.48;2.15;;;9.80;99.90;;;;;;5051770;28;20112;-84
2023/12/29 01:02:33;;;;;;;9.48;2.58;;;9.70;99.90;;;;;;5052351;28;20055;-83
2023/12/29 01:04:59;;;;;;;10.07;2.30;;;9.60;99.90;;;;;;5051623;28;20428;-83
2023/12/29 01:07:24;;;;;;;13.52;2.92;;;9.70;99.90;;;;;;5051641;28;20091;-84
2023/12/29 01:09:50;;;;;;;8.77;2.45;;;9.70;99.90;;;;;;5052851;28;20079;-83
2023/12/29 01:12:16;;;;;;;13.95;2.60;;;9.60;99.90;;;;;;5051923;28;20044;-84
2023/12/29 01:14:41;;;;;;;11.38;2.55;;;9.60;99.90;;;;;;5051815;28;20608;-83
2023/12/29 01:17:07;;;;;;;12.65;2.60;;;9.60;99.90;;;;;;5052851;28;20036;-82
2023/12/29 01:19:33;;;;;;;11.73;2.70;;;9.50;99.90;;;;;;5044868;28;20045;-82
2023/12/29 01:21:58;;;;;;;14.82;3.42;;;9.50;99.90;;;;;;5051450;28;20041;-83
2023/12/29 01:24:24;;;;;;;11.48;2.60;;;9.60;99.90;;;;;;5051464;28;20043;-82
2023/12/29 01:26:50;;;;;;;16.60;3.08;;;9.40;99.90;;;;;;5053412;28;20501;-83
2023/12/29 01:29:15;;;;;;;14.65;3.20;;;9.50;99.90;;;;;;5051179;28;20434;-83
2023/12/29 01:31:41;;;;;;;15.82;4.13;;;9.60;99.90;;;;;;5053124;28;20044;-83
2023/12/29 01:34:06;;;;;;;14.68;3.30;;;9.70;99.90;;;;;;5050918;28;20094;-83
2023/12/29 01:36:32;;;;;;;19.20;3.78;;;9.60;99.90;;;;;;5045038;28;20415;-83
2023/12/29 01:38:58;;;;;;;12.95;3.67;;;9.60;99.90;;;;;;5049106;28;20049;-82
2023/12/29 01:41:23;;;;;;;13.00;3.10;;;9.60;99.90;;;;;;5050891;28;20033;-83
2023/12/29 01:44:01;;;;;;;17.55;3.28;;;9.40;99.90;;;;;;5046305;28;20045;-83
2023/12/29 01:46:29;;;;;;;17.48;2.67;;;9.40;99.90;;;;;;5051040;28;20037;-83
2023/12/29 01:48:55;;;;;;;11.90;2.42;;;9.60;99.90;;;;;;5045204;28;20044;-83
2023/12/29 01:51:23;;;;;;;10.32;2.30;;;9.40;99.90;;;;;;5050614;28;20068;-83
2023/12/29 01:53:50;;;;;;;8.13;1.77;;;9.30;99.90;;;;;;5050062;28;20037;-82
2023/12/29 01:56:16;;;;;;;6.38;1.58;;;9.20;99.90;;;;;;5050695;28;20508;-83
2023/12/29 01:58:43;;;;;;;7.75;1.30;;;9.10;99.90;;;;;;5046088;28;20044;-83
2023/12/29 02:01:09;;;;;;;3.75;0.90;;;9.10;99.90;;;;;;5045536;28;20041;-84
2023/12/29 02:03:35;;;;;;;5.70;1.20;;;9.10;99.90;;;;;;5051018;28;20051;-84
2023/12/29 02:06:01;;;;;;;4.43;1.13;;;9.00;99.90;;;;;;5050734;28;20036;-83
2023/12/29 02:08:28;;;;;;;4.90;0.80;;;8.90;99.90;;;;;;5048977;28;20025;-83
2023/12/29 02:10:55;;;;;;;3.30;0.70;;;8.90;99.90;;;;;;5048332;28;20043;-84
2023/12/29 02:13:22;;;;;;;3.78;0.95;;;9.00;99.90;;;;;;5050685;28;20051;-85
2023/12/29 02:15:50;;;;;;;3.50;0.75;;;8.80;99.90;;;;;;5050629;28;20056;-83
2023/12/29 02:18:18;;;;;;;4.13;0.70;;;8.70;99.90;;;;;;5051548;28;20464;-84
2023/12/29 02:20:44;;;;;;;8.25;1.40;;;8.70;99.90;;;;;;5051383;28;20040;-84
2023/12/29 02:23:10;;;;;;;9.70;1.88;;;8.40;99.90;;;;;;5050090;28;20413;-84
2023/12/29 02:25:36;;;;;;;6.00;1.40;;;8.20;99.90;;;;;;5048872;28;20067;-84
2023/12/29 02:28:15;;;;;;;8.77;1.85;;;8.40;99.90;;;;;;5048699;28;20052;-84
2023/12/29 02:30:51;;;;;;;9.52;1.80;;;8.10;99.90;;;;;;5048523;28;20066;-84
2023/12/29 02:33:20;;;;;;;14.00;2.05;;;7.90;99.90;;;;;;5051448;28;20396;-84
2023/12/29 02:35:49;;;;;;;10.88;2.08;;;7.80;99.90;;;;;;5046260;28;20036;-84
2023/12/29 02:38:15;;;;;;;9.23;1.80;;;7.80;99.90;;;;;;5043423;28;20041;-83
2023/12/29 02:40:41;;;;;;;10.75;1.98;;;7.70;99.90;;;;;;5051596;28;20036;-83
2023/12/29 02:43:09;;;;;;;8.88;1.70;;;7.90;99.90;;;;;;5050076;28;20052;-83
2023/12/29 02:45:34;;;;;;;11.13;2.38;;;7.80;99.90;;;;;;5046202;28;20037;-83
2023/12/29 02:48:00;;;;;;;13.20;2.22;;;7.90;99.90;;;;;;5042985;28;20048;-84
2023/12/29 02:50:25;;;;;;;11.63;2.28;;;7.90;99.90;;;;;;5045303;28;20047;-82
2023/12/29 02:52:51;;;;;;;14.98;2.78;;;8.00;99.90;;;;;;5050869;28;20551;-84
2023/12/29 02:55:17;;;;;;;20.17;3.00;;;8.10;99.90;;;;;;5043115;28;20060;-84
2023/12/29 02:57:43;;;;;;;16.65;2.90;;;8.50;99.90;;;;;;5047919;28;20045;-84
2023/12/29 03:00:08;;;;;;;16.42;3.92;;;8.50;99.90;;;;;;5050067;28;20513;-83
2023/12/29 03:02:34;;;;;;;17.27;3.53;;;8.50;99.90;;;;;;5049001;28;20044;-83
2023/12/29 03:05:00;;;;;;;20.55;3.83;;;8.60;99.90;;;;;;5051048;28;20079;-83
2023/12/29 03:07:26;;;;;;;20.80;3.42;;;8.60;99.90;;;;;;5049076;28;20045;-83
2023/12/29 03:09:51;;;;;;;18.10;3.38;;;8.70;99.90;;;;;;5051063;28;20549;-83
2023/12/29 03:12:17;;;;;;;16.30;3.53;;;8.70;99.90;;;;;;5049861;28;20041;-84
2023/12/29 03:14:44;;;;;;;23.48;4.35;;;8.80;99.90;;;;;;5044769;28;20033;-84
2023/12/29 03:17:11;;;;;;;19.10;3.92;;;9.10;99.90;;;;;;5050594;28;20039;-83
2023/12/29 03:19:37;;;;;;;20.52;3.83;;;8.90;99.90;;;;;;5032780;28;20036;-84
2023/12/29 03:22:02;;;;;;;17.67;3.20;;;9.00;99.90;;;;;;5049195;28;20509;-83
2023/12/29 03:24:29;;;;;;;18.35;3.40;;;8.90;99.90;;;;;;5045595;28;20122;-83
2023/12/29 03:26:55;;;;;;;25.73;4.30;;;9.10;99.90;;;;;;5048216;28;20088;-83
2023/12/29 03:29:21;;;;;;;19.95;3.80;;;9.10;99.90;;;;;;5047849;28;20122;-83
2023/12/29 03:31:46;;;;;;;23.60;4.43;;;9.00;99.90;;;;;;5043512;28;20041;-83
2023/12/29 03:34:12;;;;;;;14.20;2.88;;;9.00;99.90;;;;;;5043823;28;20041;-84
2023/12/29 03:36:38;;;;;;;22.55;3.00;;;9.20;99.90;;;;;;5044016;28;20771;-84
2023/12/29 03:39:04;;;;;;;23.58;4.32;;;9.00;99.90;;;;;;5049885;28;20068;-83
2023/12/29 03:41:30;;;;;;;23.90;4.47;;;9.00;99.90;;;;;;5048930;28;20087;-84
2023/12/29 03:43:56;;;;;;;22.17;3.50;;;9.00;99.90;;;;;;5048587;28;20041;-83
2023/12/29 03:46:22;;;;;;;21.00;3.70;;;9.10;99.90;;;;;;5045974;28;20037;-83
2023/12/29 03:48:49;;;;;;;19.70;3.70;;;9.10;99.90;;;;;;5050914;28;20076;-83
2023/12/29 03:51:19;;;;;;;22.67;4.32;;;9.00;99.90;;;;;;5048661;28;20062;-83
2023/12/29 03:53:44;;;;;;;28.98;4.57;;;9.20;99.90;;;;;;5043277;28;20048;-84
2023/12/29 03:56:18;;;;;;;24.98;4.22;;;9.10;99.90;;;;;;5046692;28;20033;-83
2023/12/29 03:58:45;;;;;;;23.08;4.57;;;9.20;99.90;;;;;;5048027;28;20041;-83
2023/12/29 04:01:15;;;;;;;26.05;4.50;;;9.20;99.90;;;;;;5047604;28;20505;-84
2023/12/29 04:03:41;;;;;;;23.48;3.80;;;9.30;99.90;;;;;;5044407;28;20116;-83
2023/12/29 04:06:07;;;;;;;19.33;4.03;;;9.10;99.90;;;;;;5046636;28;20488;-82
2023/12/29 04:08:37;;;;;;;20.85;4.25;;;9.10;99.90;;;;;;5046854;28;20037;-83
2023/12/29 04:11:03;;;;;;;24.13;3.85;;;9.10;99.90;;;;;;5048916;28;20076;-83
2023/12/29 04:13:30;;;;;;;21.67;3.85;;;9.10;99.90;;;;;;5032411;28;20079;-82
2023/12/29 04:15:55;;;;;;;26.40;4.38;;;9.20;99.90;;;;;;5047778;28;20045;-83
2023/12/29 04:18:23;;;;;;;20.40;4.28;;;9.30;99.90;;;;;;5049672;28;20044;-83
2023/12/29 04:20:49;;;;;;;26.80;3.97;;;9.20;99.90;;;;;;5043916;28;20573;-83
2023/12/29 04:23:14;;;;;;;31.27;4.93;;;9.30;99.90;;;;;;5051750;28;20080;-83
2023/12/29 04:25:40;;;;;;;29.35;4.43;;;9.40;99.90;;;;;;5052530;28;20083;-83
2023/12/29 04:28:09;;;;;;;18.40;4.00;;;9.20;99.90;;;;;;5052395;28;20049;-83
2023/12/29 04:30:35;;;;;;;22.88;4.95;;;9.40;99.90;;;;;;5047949;28;20036;-82
2023/12/29 04:33:01;;;;;;;21.95;3.63;;;9.30;99.90;;;;;;5052087;28;20048;-82
2023/12/29 04:35:26;;;;;;;25.83;4.78;;;9.40;99.90;;;;;;5048803;28;20485;-84
2023/12/29 04:37:52;;;;;;;19.65;3.97;;;9.50;99.90;;;;;;5046188;28;20416;-83
2023/12/29 04:40:18;;;;;;;24.23;4.15;;;9.30;99.90;;;;;;5049633;28;20520;-82
2023/12/29 04:42:44;;;;;;;20.63;3.55;;;9.30;99.90;;;;;;5046846;28;20060;-83
2023/12/29 04:45:10;;;;;;;24.50;3.90;;;9.70;99.90;;;;;;5053152;28;20036;-84
2023/12/29 04:47:36;;;;;;;18.35;4.00;;;9.40;99.90;;;;;;5048150;28;20104;-83
2023/12/29 04:50:02;;;;;;;31.48;4.95;;;9.50;99.90;;;;;;5047366;28;20569;-84
2023/12/29 04:52:28;;;;;;;17.73;3.47;;;9.30;99.90;;;;;;5048239;28;20115;-83
2023/12/29 04:54:53;;;;;;;18.67;3.60;;;9.30;99.90;;;;;;5051143;28;20121;-84
2023/12/29 04:57:19;;;;;;;18.05;3.22;;;9.30;99.90;;;;;;5053582;28;20045;-84
2023/12/29 04:59:45;;;;;;;24.33;3.70;;;9.30;99.90;;;;;;5053848;28;20120;-83
2023/12/29 05:02:10;;;;;;;22.70;3.80;;;9.20;99.90;;;;;;5048965;28;20049;-83
2023/12/29 05:04:37;;;;;;;24.33;3.70;;;9.30;99.90;;;;;;5049084;28;20029;-83
2023/12/29 05:07:05;;;;;;;22.13;3.75;;;9.30;99.90;;;;;;5051718;28;20051;-84
2023/12/29 05:09:31;;;;;;;21.58;3.83;;;9.30;99.90;;;;;;5052857;28;20091;-84
2023/12/29 05:11:56;;;;;;;17.70;3.53;;;9.30;99.90;;;;;;5052068;28;20049;-83
2023/12/29 05:14:22;;;;;;;20.77;3.80;;;9.50;99.90;;;;;;5047220;28;20497;-82
2023/12/29 05:16:47;;;;;;;21.98;3.95;;;9.30;99.90;;;;;;5049733;28;20095;-83
2023/12/29 05:19:13;;;;;;;21.65;4.10;;;9.70;99.90;;;;;;5051489;28;20041;-83
2023/12/29 05:21:39;;;;;;;25.00;4.28;;;9.40;99.90;;;;;;5053027;28;20041;-83
2023/12/29 05:24:05;;;;;;;20.92;3.28;;;9.60;99.90;;;;;;5047611;28;20497;-83
2023/12/29 05:26:31;;;;;;;19.75;3.60;;;9.30;99.90;;;;;;5048818;28;20048;-83
2023/12/29 05:28:57;;;;;;;20.83;4.68;;;9.40;99.90;;;;;;5053322;28;20036;-83
2023/12/29 05:31:23;;;;;;;21.65;4.50;;;9.60;99.90;;;;;;5048834;28;20040;-83
2023/12/29 05:33:48;;;;;;;25.98;4.50;;;9.40;99.90;;;;;;5047374;28;20455;-82
2023/12/29 05:36:14;;;;;;;18.67;3.75;;;9.40;99.90;;;;;;5046977;28;20120;-83
2023/12/29 05:38:41;;;;;;;24.50;3.95;;;9.40;99.90;;;;;;5051672;28;20040;-83
2023/12/29 05:41:07;;;;;;;20.17;3.58;;;9.40;99.90;;;;;;5051423;28;20056;-82
2023/12/29 05:43:33;;;;;;;28.88;4.25;;;9.30;99.90;;;;;;5048140;28;20131;-82
2023/12/29 05:45:59;;;;;;;24.35;3.80;;;9.50;99.90;;;;;;5051640;28;20033;-82
2023/12/29 05:48:25;;;;;;;21.60;3.67;;;9.40;99.90;;;;;;5050661;28;20159;-83
2023/12/29 05:50:51;;;;;;;20.38;3.33;;;9.40;99.90;;;;;;5047111;28;20032;-82
2023/12/29 05:53:17;;;;;;;25.95;4.13;;;9.40;99.90;;;;;;5052423;28;20440;-83
2023/12/29 05:55:46;;;;;;;20.77;4.00;;;9.30;99.90;;;;;;5048785;28;20043;-83
2023/12/29 05:58:12;;;;;;;22.08;3.75;;;9.30;99.90;;;;;;5045579;28;20041;-82
2023/12/29 06:00:39;;;;;;;21.83;3.78;;;9.40;99.90;;;;;;5050742;28;20041;-83
2023/12/29 06:03:05;;;;;;;18.23;3.50;;;9.40;99.90;;;;;;5048505;28;20514;-82
2023/12/29 06:05:31;;;;;;;22.10;3.90;;;9.30;99.90;;;;;;5047612;28;20072;-83
2023/12/29 06:07:57;;;;;;;20.67;4.05;;;9.40;99.90;;;;;;5052261;28;20037;-82
2023/12/29 06:10:22;;;;;;;19.50;3.22;;;9.40;99.90;;;;;;5051474;28;20178;-81
2023/12/29 06:12:48;;;;;;;20.63;2.90;;;9.40;99.90;;;;;;5048425;28;20057;-83
2023/12/29 06:15:14;;;;;;;29.25;4.22;;;9.70;99.90;;;;;;5048689;28;20049;-83
2023/12/29 06:17:40;;;;;;;22.35;3.10;;;9.50;99.90;;;;;;5050366;28;20025;-82
2023/12/29 06:20:07;;;;;;;18.30;3.67;;;9.50;99.90;;;;;;5043983;28;20049;-83
2023/12/29 06:22:33;;;;;;;17.10;3.60;;;9.40;99.90;;;;;;5045535;28;20105;-85
2023/12/29 06:24:59;;;;;;;20.20;3.80;;;9.70;99.90;;;;;;5041499;28;20128;-84
2023/12/29 06:27:25;;;;;;;20.35;3.28;;;9.50;99.90;;;;;;5044540;28;20178;-84
2023/12/29 06:29:51;;;;;;;15.68;3.38;;;9.40;99.90;;;;;;5048615;28;20037;-84
2023/12/29 06:32:17;;;;;;;18.00;3.08;;;9.30;99.90;;;;;;5043177;28;20046;-84
2023/12/29 06:34:43;;;;;;;18.00;3.10;;;9.30;99.90;;;;;;5044469;28;20048;-84
2023/12/29 06:37:09;;;;;;;20.77;3.55;;;9.40;99.90;;;;;;5044459;28;20045;-85
2023/12/29 06:39:34;;;;;;;19.40;3.03;;;9.10;99.90;;;;;;5047304;28;20037;-83
2023/12/29 06:42:00;;;;;;;21.73;3.78;;;8.90;99.90;;;;;;5051880;28;20044;-82
2023/12/29 06:44:25;;;;;;;19.77;3.67;;;8.80;99.90;;;;;;5050612;28;20033;-82
2023/12/29 06:46:51;;;;;;;16.73;3.28;;;9.00;99.90;;;;;;5046146;28;20040;-84
2023/12/29 06:49:17;;;;;;;20.67;3.53;;;8.80;99.90;;;;;;5048154;28;20041;-83
2023/12/29 06:51:42;;;;;;;18.15;3.05;;;8.70;99.90;;;;;;5049611;28;20037;-82
2023/12/29 06:54:08;;;;;;;22.58;4.55;;;8.60;99.90;;;;;;5043348;28;20037;-83
2023/12/29 06:56:34;;;;;;;19.63;3.17;;;8.80;99.90;;;;;;5082837;28;20029;-82
2023/12/29 06:58:59;;;;;;;18.05;3.25;;;8.70;99.90;;;;;;5048793;28;20048;-83
2023/12/29 07:01:25;;;;;;;21.05;3.50;;;9.00;99.90;;;;;;5046845;28;20033;-81
2023/12/29 07:03:51;;;;;;;21.15;3.75;;;8.70;99.90;;;;;;5061838;28;20116;-82
2023/12/29 07:06:17;;;;;;;19.80;3.78;;;8.80;99.90;;;;;;5043638;28;20064;-83
2023/12/29 07:08:42;;;;;;;20.23;4.10;;;8.80;99.90;;;;;;5051311;28;20450;-82
2023/12/29 07:11:11;;;;;;;22.25;3.88;;;8.80;99.90;;;;;;5051961;28;20041;-81
2023/12/29 07:13:37;;;;;;;20.63;4.07;;;9.10;99.90;;;;;;5050797;28;20033;-83
2023/12/29 07:16:04;;;;;;;23.45;3.42;;;9.00;99.90;;;;;;5049708;28;20086;-82
2023/12/29 07:18:29;;;;;;;22.50;4.20;;;8.90;99.90;;;;;;5049927;28;20032;-83
2023/12/29 07:20:55;;;;;;;16.38;3.58;;;9.00;99.90;;;;;;5049812;28;20496;-83
2023/12/29 07:23:21;;;;;;;22.73;3.90;;;9.00;99.90;;;;;;5047406;28;20049;-84
2023/12/29 07:25:48;;;;;;;23.52;3.58;;;9.00;99.90;;;;;;5045534;28;20064;-84
2023/12/29 07:28:14;;;;;;;22.77;4.03;;;9.00;99.90;;;;;;5050047;28;20041;-83
2023/12/29 07:30:39;;;;;;;21.73;4.05;;;9.10;99.90;;;;;;5048822;28;20036;-83
2023/12/29 07:33:05;;;;;;;32.67;4.28;;;9.00;99.90;;;;;;5045477;28;20045;-83
2023/12/29 07:35:30;;;;;;;21.88;3.05;;;9.00;99.90;;;;;;5044790;28;20468;-82
2023/12/29 07:37:56;;;;;;;24.25;3.80;;;9.20;99.90;;;;;;5047478;28;20037;-83
2023/12/29 07:40:22;;;;;;;22.17;4.88;;;8.90;99.90;;;;;;5044117;28;20128;-83
2023/12/29 07:42:50;;;;;;;27.45;4.80;;;9.10;99.90;;;;;;5044305;28;20571;-83
2023/12/29 07:45:16;;;;;;;25.05;3.47;;;9.10;99.90;;;;;;5045116;28;20053;-82
2023/12/29 07:47:45;;;;;;;24.98;3.63;;;9.00;99.90;;;;;;5044876;28;20036;-83
2023/12/29 07:50:10;;;;;;;20.63;3.53;;;9.20;99.90;;;;;;5046180;28;20036;-83
2023/12/29 07:52:36;;;;;;;30.70;4.53;;;9.10;99.90;;;;;;5044065;28;20045;-82
2023/12/29 07:55:01;;;;;;;20.38;3.80;;;9.10;99.90;;;;;;5044547;28;20112;-82
2023/12/29 07:57:27;;;;;;;24.17;3.80;;;9.10;99.90;;;;;;5046051;28;20041;-82
2023/12/29 07:59:53;;;;;;;20.38;3.60;;;9.20;99.90;;;;;;5050752;28;20048;-82
2023/12/29 08:02:18;;;;;;;26.55;3.60;;;9.30;99.90;;;;;;5049241;28;20044;-82
2023/12/29 08:04:48;;;;;;;19.05;3.25;;;9.20;99.90;;;;;;5048065;28;20432;-82
2023/12/29 08:07:14;;;;;;;23.52;3.97;;;9.30;99.90;;;;;;5045764;28;20044;-81
2023/12/29 08:09:39;;;;;;;19.48;3.50;;;9.30;99.90;;;;;;5049136;28;20033;-83
2023/12/29 08:12:06;;;;;;;29.23;4.07;;;9.30;99.90;;;;;;5043078;28;20049;-83
2023/12/29 08:14:32;;;;;;;25.35;3.65;;;9.30;99.90;;;;;;5046590;28;20033;-81
2023/12/29 08:16:57;;;;;;;22.75;4.57;;;9.30;99.90;;;;;;5047462;28;20034;-82
2023/12/29 08:19:23;;;;;;;21.17;4.38;;;9.20;99.90;;;;;;5049539;28;20201;-82
2023/12/29 08:21:49;;;;;;;19.95;3.80;;;9.30;99.90;;;;;;5053195;28;20040;-82
2023/12/29 08:24:15;;;;;;;18.88;3.47;;;9.30;99.90;;;;;;5052220;28;20033;-84
2023/12/29 08:26:46;;;;;;;21.23;3.85;;;9.40;99.90;;;;;;5052675;28;20072;-83
2023/12/29 08:29:11;;;;;;;17.70;3.65;;;9.40;99.90;;;;;;5052057;28;20048;-82
2023/12/29 08:31:37;;;;;;;22.90;3.35;;;9.20;99.90;;;;;;5043450;28;20537;-82
2023/12/29 08:34:02;;;;;;;22.00;3.17;;;9.30;99.90;;;;;;5048573;28;20041;-83
2023/12/29 08:36:28;;;;;;;26.50;3.65;;;9.40;99.90;;;;;;5047455;28;20079;-83
2023/12/29 08:38:54;;;;;;;22.00;3.70;;;9.20;99.90;;;;;;5050028;28;20465;-82
2023/12/29 08:41:19;;;;;;;20.75;3.55;;;9.20;99.90;;;;;;5052056;28;20124;-82
2023/12/29 08:43:45;;;;;;;25.48;3.90;;;9.20;99.90;;;;;;5051605;28;20437;-83
2023/12/29 08:46:11;;;;;;;24.98;4.57;;;9.20;99.90;;;;;;5048024;28;20377;-84
2023/12/29 08:48:36;;;;;;;20.73;4.13;;;9.30;99.90;;;;;;5051813;28;20433;-83
2023/12/29 08:51:02;;;;;;;26.80;4.50;;;9.30;99.90;;;;;;5051799;28;20394;-81
2023/12/29 08:53:31;;;;;;;22.40;3.92;;;9.20;99.90;;;;;;5044674;28;20048;-83
2023/12/29 08:55:56;;;;;;;27.58;4.32;;;9.30;99.90;;;;;;5051847;28;20048;-82
2023/12/29 08:58:22;;;;;;;21.58;4.53;;;9.30;99.90;;;;;;5084067;28;20571;-81
2023/12/29 09:00:48;;;;;;;21.00;3.85;;;9.40;99.90;;;;;;5050599;28;20400;-83
2023/12/29 09:03:13;;;;;;;28.92;4.03;;;9.20;99.90;;;;;;5052865;28;20048;-83
2023/12/29 09:05:39;;;;;;;28.80;5.35;;;9.40;99.90;;;;;;5054649;28;20071;-82
2023/12/29 09:08:05;;;;;;;29.00;3.65;;;9.60;99.90;;;;;;5045229;28;20049;-83
2023/12/29 09:10:30;;;;;;;21.20;3.92;;;9.20;99.90;;;;;;5051427;28;20064;-82
2023/12/29 09:12:56;;;;;;;22.42;3.60;;;9.20;99.90;;;;;;5049848;28;20121;-83
2023/12/29 09:15:22;;;;;;;21.23;3.58;;;9.30;99.90;;;;;;5052491;28;20033;-83
2023/12/29 09:17:48;;;;;;;18.10;3.67;;;9.30;99.90;;;;;;5050438;28;20420;-82
2023/12/29 09:20:14;;;;;;;19.92;3.47;;;9.40;99.90;;;;;;5052824;28;20032;-83
2023/12/29 09:22:40;;;;;;;22.85;3.25;;;9.40;99.90;;;;;;5051088;28;20167;-82
2023/12/29 09:25:06;;;;;;;18.05;3.13;;;9.40;99.90;;;;;;5044989;28;20128;-82
2023/12/29 09:27:31;;;;;;;21.58;3.22;;;9.30;99.90;;;;;;5037831;28;20458;-83
2023/12/29 09:29:57;;;;;;;28.45;4.07;;;9.40;99.90;;;;;;5044665;28;20615;-82
2023/12/29 09:32:22;;;;;;;17.52;3.15;;;9.30;99.90;;;;;;5048942;28;20076;-81
2023/12/29 09:34:48;;;;;;;19.70;3.53;;;9.50;99.90;;;;;;5049855;28;20037;-83
2023/12/29 09:37:14;;;;;;;22.17;3.67;;;9.50;99.90;;;;;;5051562;28;20102;-83
2023/12/29 09:39:39;;;;;;;20.88;3.70;;;9.40;99.90;;;;;;5053005;28;20840;-82
2023/12/29 09:42:07;;;;;;;24.25;4.40;;;9.50;99.90;;;;;;5049900;28;20452;-83
2023/12/29 09:44:35;;;;;;;16.98;3.33;;;9.50;99.90;;;;;;5078215;28;20052;-84
2023/12/29 09:47:03;;;;;;;21.25;3.15;;;9.60;99.90;;;;;;5083361;28;20037;-83
2023/12/29 09:49:40;;;;;;;18.60;3.13;;;9.60;99.90;;;;;;5079818;28;20343;-84
2023/12/29 09:52:09;;;;;;;20.50;3.10;;;9.60;99.90;;;;;;5030361;28;20045;-83
2023/12/29 09:54:36;;;;;;;24.08;3.83;;;9.70;99.90;;;;;;5041347;28;20076;-84
2023/12/29 09:57:04;;;;;;;19.17;3.30;;;9.60;99.90;;;;;;5037326;28;20073;-84
2023/12/29 09:59:34;;;;;;;23.65;4.30;;;9.70;99.90;;;;;;5030072;28;20037;-83
2023/12/29 10:02:01;;;;;;;18.73;3.22;;;9.70;99.90;;;;;;5050146;28;20060;-84
2023/12/29 10:04:26;;;;;;;15.27;3.33;;;9.80;99.90;;;;;;5049326;28;20451;-83
2023/12/29 10:06:54;;;;;;;17.35;2.97;;;9.80;99.90;;;;;;5034754;28;20041;-83
2023/12/29 10:09:20;;;;;;;19.27;4.03;;;9.70;99.90;;;;;;5051111;28;20036;-83
2023/12/29 10:11:48;;;;;;;16.17;3.50;;;10.00;99.90;;;;;;5051251;28;20041;-84
2023/12/29 10:14:24;;;;;;;25.10;3.97;;;9.60;99.90;;;;;;5050846;28;20049;-83
2023/12/29 10:17:03;;;;;;;17.75;3.67;;;9.70;99.90;;;;;;5040985;28;20564;-84
2023/12/29 10:19:41;;;;;;;18.98;3.10;;;10.00;99.90;;;;;;5045792;28;20025;-80
2023/12/29 10:22:15;;;;;;;20.42;3.28;;;9.90;99.90;;;;;;5050876;28;20146;-81
2023/12/29 10:24:43;;;;;;;22.45;4.13;;;9.80;99.90;;;;;;5050835;28;20501;-79
2023/12/29 10:27:09;;;;;;;22.27;3.95;;;9.70;99.90;;;;;;5039083;28;20045;-80
2023/12/29 10:29:35;;;;;;;16.98;2.80;;;10.00;99.90;;;;;;5049121;28;20117;-81
2023/12/29 10:32:00;;;;;;;15.27;2.58;;;9.80;99.90;;;;;;5049152;28;20501;-79
2023/12/29 10:34:29;;;;;;;13.20;2.28;;;9.80;99.90;;;;;;5048696;28;20116;-79
2023/12/29 10:36:56;;;;;;;15.85;3.05;;;9.70;99.90;;;;;;5044756;28;20055;-80
2023/12/29 10:39:22;;;;;;;15.35;3.42;;;9.80;99.90;;;;;;5050522;28;20072;-81
2023/12/29 10:41:48;;;;;;;17.98;2.72;;;9.80;99.90;;;;;;5042726;28;20048;-79
2023/12/29 10:44:13;;;;;;;14.52;2.70;;;9.70;99.90;;;;;;5045117;28;20037;-83
2023/12/29 10:46:39;;;;;;;15.07;2.80;;;9.70;99.90;;;;;;5045232;28;20182;-83
2023/12/29 10:49:11;;;;;;;14.55;2.90;;;9.70;99.90;;;;;;5049826;28;20393;-82
2023/12/29 10:51:37;;;;;;;13.45;2.90;;;9.80;99.90;;;;;;5050266;28;20041;-83
2023/12/29 10:54:04;;;;;;;17.02;2.90;;;9.70;99.90;;;;;;5051479;28;20052;-83
2023/12/29 10:56:33;;;;;;;14.35;3.03;;;9.60;99.90;;;;;;5048751;28;20036;-83
2023/12/29 10:59:04;;;;;;;12.02;2.78;;;9.50;99.90;;;;;;5049216;28;20045;-82
2023/12/29 11:01:31;;;;;;;15.60;2.20;;;9.40;99.90;;;;;;5050577;28;20408;-82
2023/12/29 11:04:02;;;;;;;8.23;2.00;;;9.50;99.90;;;;;;5050364;28;20412;-82
2023/12/29 11:06:29;;;;;;;14.32;2.65;;;9.60;99.90;;;;;;5049665;28;20089;-83
2023/12/29 11:08:55;;;;;;;11.77;2.17;;;9.70;99.90;;;;;;5049571;28;20074;-83
2023/12/29 11:11:21;;;;;;;15.45;2.30;;;9.70;99.90;;;;;;5050596;28;20396;-83
2023/12/29 11:13:47;;;;;;;11.15;2.45;;;9.80;99.90;;;;;;5050885;28;20036;-82
2023/12/29 11:16:17;;;;;;;11.95;2.45;;;9.80;99.90;;;;;;5049755;28;20045;-83
2023/12/29 11:18:43;;;;;;;16.73;3.03;;;10.00;99.90;;;;;;5050955;28;20045;-83
2023/12/29 11:21:10;;;;;;;12.65;2.78;;;9.80;99.90;;;;;;5049849;28;20037;-82
2023/12/29 11:23:36;;;;;;;14.35;2.72;;;9.70;99.90;;;;;;5049421;28;20037;-83
2023/12/29 11:26:03;;;;;;;18.00;3.03;;;9.60;99.90;;;;;;5051180;28;20037;-83
2023/12/29 11:28:29;;;;;;;16.10;2.65;;;9.60;99.90;;;;;;5051273;28;20029;-83
2023/12/29 11:30:55;;;;;;;15.75;2.28;;;9.60;99.90;;;;;;5049396;28;20091;-81
2023/12/29 11:33:26;;;;;;;12.77;2.90;;;9.70;99.90;;;;;;5044006;28;20086;-82
2023/12/29 11:36:00;;;;;;;11.52;2.47;;;9.90;99.90;;;;;;5042209;28;20044;-82
2023/12/29 11:38:33;;;;;;;;;;;10.00;99.90;;;;;;5049863;28;20043;-84
2023/12/29 11:41:21;;;;;;;11.23;1.98;;;10.50;99.90;;;;;;5049714;28;19959;-82
2023/12/29 11:43:59;;;;;;;9.18;2.05;;;10.20;99.90;;;;;;5041767;28;20068;-83
2023/12/29 11:46:37;;;;;;;9.82;1.95;;;10.20;99.90;;;;;;5048334;28;20044;-83
2023/12/29 11:49:04;;;;;;;11.93;2.15;;;10.20;99.90;;;;;;5049091;28;20451;-82
2023/12/29 11:51:34;;;;;;;11.10;2.22;;;10.20;99.90;;;;;;5047207;28;20041;-82
2023/12/29 11:54:01;;;;;;;12.93;3.13;;;10.20;99.90;;;;;;5047132;28;20057;-82
2023/12/29 11:56:43;;;;;;;10.63;2.53;;;10.20;99.90;;;;;;5046149;28;20124;-82
2023/12/29 11:59:17;;;;;;;12.55;2.08;;;10.30;99.90;;;;;;5069669;28;20052;-82
2023/12/29 12:01:42;;;;;;;11.25;2.35;;;10.20;99.90;;;;;;5039389;28;20041;-82
2023/12/29 12:04:42;;;;;;;11.27;2.17;;;10.20;99.90;;;;;;5048590;28;20062;-81
2023/12/29 12:07:09;;;;;;;12.25;3.05;;;10.10;99.90;;;;;;5015771;28;20065;-84
2023/12/29 12:09:35;;;;;;;11.10;1.98;;;10.20;99.90;;;;;;5041578;28;20041;-83
2023/12/29 12:12:03;;;;;;;8.50;1.90;;;10.00;99.90;;;;;;5041427;28;20160;-85
2023/12/29 12:14:50;;;;;;;11.77;2.20;;;9.90;99.90;;;;;;5040880;28;20029;-83
2023/12/29 12:17:29;;;;;;;13.57;2.70;;;9.80;99.90;;;;;;5042471;28;20505;-83
2023/12/29 12:20:13;;;;;;;10.90;2.25;;;9.60;99.90;;;;;;5042399;28;20515;-83
2023/12/29 12:22:40;;;;;;;13.60;2.28;;;9.60;99.90;;;;;;5036559;28;20033;-84
2023/12/29 12:25:06;;;;;;;14.25;2.25;;;9.70;99.90;;;;;;5037847;28;20053;-82
2023/12/29 12:27:32;;;;;;;11.45;2.00;;;9.60;99.90;;;;;;5067087;28;20076;-83
2023/12/29 12:29:59;;;;;;;11.45;2.38;;;9.60;99.90;;;;;;5073070;28;20094;-82
2023/12/29 12:32:29;;;;;;;10.27;2.33;;;9.40;99.90;;;;;;5036161;28;20076;-83
2023/12/29 12:34:56;;;;;;;11.70;2.67;;;9.50;99.90;;;;;;5048234;28;20049;-84
2023/12/29 12:37:22;;;;;;;10.40;1.77;;;9.50;99.90;;;;;;5048254;28;20211;-83
2023/12/29 12:39:49;;;;;;;9.35;1.98;;;9.50;99.90;;;;;;5030124;28;20033;-83
2023/12/29 12:42:16;;;;;;;11.05;2.28;;;9.40;99.90;;;;;;5049985;28;20064;-84
2023/12/29 12:44:50;;;;;;;10.40;2.13;;;9.40;99.90;;;;;;5047738;28;20033;-84
2023/12/29 12:47:23;;;;;;;9.18;1.75;;;9.30;99.90;;;;;;5051426;28;20599;-83